createdAt,value
2022-08-26T00:00:22.010Z,4.47
2022-08-26T00:02:50.605Z,4.82
2022-08-26T00:05:19.212Z,4.72
2022-08-26T00:07:48.091Z,4.55
2022-08-26T00:10:17.946Z,4.10
2022-08-26T00:12:46.443Z,3.88
2022-08-26T00:15:20.133Z,5.18
2022-08-26T00:17:52.798Z,4.05
2022-08-26T00:20:26.108Z,4.40
2022-08-26T00:22:55.625Z,8.70
2022-08-26T00:25:24.586Z,25.48
2022-08-26T00:27:53.084Z,7.32
2022-08-26T00:30:27.704Z,4.47
2022-08-26T00:32:58.840Z,4.65
2022-08-26T00:35:28.536Z,4.25
2022-08-26T00:37:58.391Z,4.50
2022-08-26T00:40:34.387Z,3.65
2022-08-26T00:43:09.458Z,3.90
2022-08-26T00:45:46.791Z,3.58
2022-08-26T00:48:20.846Z,3.40
2022-08-26T00:50:56.145Z,3.72
2022-08-26T00:53:27.984Z,3.47
2022-08-26T00:56:02.749Z,3.67
2022-08-26T00:58:35.443Z,3.97
2022-08-26T01:01:04.119Z,4.40
2022-08-26T01:03:36.279Z,3.45
2022-08-26T01:06:12.654Z,4.50
2022-08-26T01:08:42.184Z,4.00
2022-08-26T01:11:12.643Z,5.75
2022-08-26T01:13:42.357Z,3.38
2022-08-26T01:16:15.992Z,4.57
2022-08-26T01:18:47.133Z,3.58
2022-08-26T01:21:26.196Z,3.38
2022-08-26T01:23:57.875Z,4.60
2022-08-26T01:26:31.795Z,4.30
2022-08-26T01:29:03.970Z,3.92
2022-08-26T01:31:39.828Z,3.88
2022-08-26T01:34:17.459Z,3.65
2022-08-26T01:36:50.712Z,2.75
2022-08-26T01:39:21.899Z,5.10
2022-08-26T01:41:54.437Z,4.20
2022-08-26T01:44:26.959Z,4.75
2022-08-26T01:46:58.454Z,3.65
2022-08-26T01:49:28.027Z,3.75
2022-08-26T01:52:00.630Z,4.38
2022-08-26T01:54:30.463Z,3.88
2022-08-26T01:56:59.735Z,4.10
2022-08-26T01:59:28.542Z,4.13
2022-08-26T02:01:57.365Z,4.03
2022-08-26T02:04:32.670Z,4.07
2022-08-26T02:07:04.153Z,3.90
2022-08-26T02:09:38.412Z,2.95
2022-08-26T02:12:11.926Z,4.22
2022-08-26T02:14:44.574Z,3.22
2022-08-26T02:17:13.426Z,4.55
2022-08-26T02:19:47.053Z,3.90
2022-08-26T02:22:21.313Z,3.80
2022-08-26T02:24:54.866Z,3.80
2022-08-26T02:27:28.127Z,3.58
2022-08-26T02:30:08.609Z,3.95
2022-08-26T02:32:37.135Z,4.40
2022-08-26T02:35:10.873Z,3.60
2022-08-26T02:37:39.704Z,4.18
2022-08-26T02:40:15.348Z,3.88
2022-08-26T02:42:43.855Z,3.58
2022-08-26T02:45:13.073Z,4.07
2022-08-26T02:47:45.334Z,4.43
2022-08-26T02:50:15.379Z,3.88
2022-08-26T02:52:45.301Z,3.75
2022-08-26T02:55:15.914Z,2.92
2022-08-26T02:57:44.502Z,4.03
2022-08-26T03:00:15.757Z,3.10
2022-08-26T03:02:44.190Z,3.90
2022-08-26T03:05:14.307Z,4.93
2022-08-26T03:07:44.340Z,3.60
2022-08-26T03:10:16.447Z,3.90
2022-08-26T03:12:47.392Z,4.40
2022-08-26T03:15:19.169Z,4.38
2022-08-26T03:17:50.289Z,4.13
2022-08-26T03:20:19.368Z,4.53
2022-08-26T03:22:47.772Z,3.83
2022-08-26T03:25:18.939Z,3.60
2022-08-26T03:27:47.406Z,4.22
2022-08-26T03:30:35.058Z,3.67
2022-08-26T03:33:03.780Z,4.38
2022-08-26T03:35:33.460Z,4.03
2022-08-26T03:38:03.407Z,3.85
2022-08-26T03:40:33.863Z,3.97
2022-08-26T03:43:02.517Z,4.72
2022-08-26T03:45:31.618Z,4.25
2022-08-26T03:48:00.127Z,4.70
2022-08-26T03:50:28.676Z,3.65
2022-08-26T03:52:57.469Z,5.18
2022-08-26T03:55:31.925Z,4.25
2022-08-26T03:58:02.561Z,3.95
2022-08-26T04:00:31.333Z,3.22
2022-08-26T04:03:00.087Z,4.18
2022-08-26T04:05:28.543Z,4.80
2022-08-26T04:07:57.036Z,4.60
2022-08-26T04:10:28.917Z,4.90
2022-08-26T04:12:59.208Z,4.22
2022-08-26T04:15:29.554Z,4.97
2022-08-26T04:17:58.366Z,6.93
2022-08-26T04:20:27.895Z,4.65
2022-08-26T04:22:56.581Z,4.68
2022-08-26T04:25:25.541Z,5.20
2022-08-26T04:27:53.930Z,4.25
2022-08-26T04:30:23.197Z,3.92
2022-08-26T04:32:53.836Z,4.38
2022-08-26T04:35:25.781Z,4.07
2022-08-26T04:37:55.531Z,5.07
2022-08-26T04:40:26.669Z,3.95
2022-08-26T04:42:55.711Z,4.18
2022-08-26T04:45:25.315Z,4.15
2022-08-26T04:47:58.293Z,4.90
2022-08-26T04:50:27.099Z,3.55
2022-08-26T04:52:56.500Z,4.50
2022-08-26T04:55:38.613Z,4.20
2022-08-26T04:58:10.395Z,4.95
2022-08-26T05:00:39.991Z,5.32
2022-08-26T05:03:10.762Z,5.05
2022-08-26T05:05:41.322Z,5.45
2022-08-26T05:08:11.205Z,4.85
2022-08-26T05:10:43.934Z,3.53
2022-08-26T05:13:15.568Z,4.47
2022-08-26T05:15:45.362Z,4.45
2022-08-26T05:18:21.260Z,4.05
2022-08-26T05:20:54.446Z,4.30
2022-08-26T05:23:24.835Z,4.28
2022-08-26T05:25:59.157Z,4.53
2022-08-26T05:28:30.814Z,5.47
2022-08-26T05:30:59.321Z,4.57
2022-08-26T05:33:29.859Z,5.03
2022-08-26T05:35:58.297Z,4.38
2022-08-26T05:38:26.874Z,4.22
2022-08-26T05:40:59.063Z,5.30
2022-08-26T05:43:27.982Z,5.68
2022-08-26T05:45:57.364Z,5.20
2022-08-26T05:48:25.815Z,5.53
2022-08-26T05:50:55.670Z,4.90
2022-08-26T05:53:25.950Z,4.38
2022-08-26T05:55:56.326Z,5.57
2022-08-26T05:58:28.214Z,5.68
2022-08-26T06:01:02.922Z,5.97
2022-08-26T06:03:33.417Z,5.32
2022-08-26T06:06:06.972Z,5.05
2022-08-26T06:08:35.900Z,6.53
2022-08-26T06:11:07.794Z,5.90
2022-08-26T06:13:40.132Z,6.80
2022-08-26T06:16:11.741Z,5.28
2022-08-26T06:18:43.105Z,6.13
2022-08-26T06:21:19.654Z,8.52
2022-08-26T06:24:08.004Z,7.10
2022-08-26T06:26:38.317Z,5.85
2022-08-26T06:29:08.526Z,6.72
2022-08-26T06:31:38.179Z,8.48
2022-08-26T06:34:10.869Z,7.13
2022-08-26T06:36:43.982Z,7.22
2022-08-26T06:39:15.496Z,6.90
2022-08-26T06:41:45.081Z,8.18
2022-08-26T06:44:16.437Z,7.22
2022-08-26T06:46:45.737Z,7.80
2022-08-26T06:49:14.324Z,8.65
2022-08-26T06:51:47.157Z,8.77
2022-08-26T06:54:17.403Z,7.55
2022-08-26T06:56:45.973Z,8.85
2022-08-26T06:59:16.516Z,8.27
2022-08-26T07:01:46.451Z,8.57
2022-08-26T07:04:21.765Z,8.60
2022-08-26T07:06:53.898Z,8.40
2022-08-26T07:09:25.522Z,8.02
2022-08-26T07:11:56.211Z,8.10
2022-08-26T07:14:26.216Z,9.27
2022-08-26T07:16:55.928Z,7.30
2022-08-26T07:19:29.093Z,7.00
2022-08-26T07:22:03.364Z,8.23
2022-08-26T07:24:33.195Z,7.72
2022-08-26T07:27:06.796Z,8.15
2022-08-26T07:29:39.515Z,6.78
2022-08-26T07:32:09.790Z,7.35
2022-08-26T07:34:39.259Z,8.13
2022-08-26T07:37:11.729Z,7.00
2022-08-26T07:39:41.738Z,6.97
2022-08-26T07:42:14.849Z,7.63
2022-08-26T07:44:44.557Z,6.75
2022-08-26T07:47:25.052Z,6.97
2022-08-26T07:49:57.554Z,7.55
2022-08-26T07:52:30.926Z,7.00
2022-08-26T07:55:02.319Z,7.25
2022-08-26T07:57:31.512Z,6.75
2022-08-26T08:00:00.691Z,6.95
2022-08-26T08:02:30.349Z,8.13
2022-08-26T08:04:59.885Z,6.22
2022-08-26T08:07:44.926Z,6.50
2022-08-26T08:10:17.363Z,7.55
2022-08-26T08:12:46.275Z,7.10
2022-08-26T08:15:15.543Z,7.93
2022-08-26T08:17:44.621Z,6.75
2022-08-26T08:20:15.407Z,7.80
2022-08-26T08:22:45.492Z,7.57
2022-08-26T08:25:16.332Z,5.43
2022-08-26T08:27:46.446Z,6.85
2022-08-26T08:30:22.855Z,6.25
2022-08-26T08:32:51.809Z,5.85
2022-08-26T08:35:22.579Z,6.15
2022-08-26T08:37:54.830Z,6.57
2022-08-26T08:40:26.356Z,6.57
2022-08-26T08:43:02.512Z,6.72
2022-08-26T08:45:38.751Z,6.72
2022-08-26T08:48:21.445Z,5.78
2022-08-26T08:51:03.521Z,6.18
2022-08-26T08:53:37.630Z,5.78
2022-08-26T08:56:13.551Z,5.45
2022-08-26T08:58:56.804Z,6.07
2022-08-26T09:01:46.589Z,6.18
2022-08-26T09:04:56.176Z,5.97
2022-08-26T09:07:36.324Z,6.28
2022-08-26T09:10:30.887Z,6.18
2022-08-26T09:13:00.822Z,5.90
2022-08-26T09:15:43.325Z,5.47
2022-08-26T09:18:25.976Z,5.70
2022-08-26T09:20:59.318Z,5.97
2022-08-26T09:23:28.210Z,4.95
2022-08-26T09:26:01.666Z,5.78
2022-08-26T09:28:32.611Z,4.88
2022-08-26T09:31:14.170Z,5.45
2022-08-26T09:33:43.907Z,6.18
2022-08-26T09:36:22.947Z,5.07
2022-08-26T09:38:55.141Z,4.80
2022-08-26T09:41:32.189Z,5.72
2022-08-26T09:44:17.462Z,5.32
2022-08-26T09:46:58.200Z,4.50
2022-08-26T09:49:35.794Z,5.50
2022-08-26T09:52:20.604Z,4.65
2022-08-26T09:55:07.897Z,5.15
2022-08-26T09:57:48.559Z,5.10
2022-08-26T10:00:31.570Z,4.85
2022-08-26T10:03:03.017Z,5.10
2022-08-26T10:05:39.972Z,4.53
2022-08-26T10:08:35.179Z,5.75
2022-08-26T10:11:08.477Z,5.00
2022-08-26T10:13:44.411Z,4.03
2022-08-26T10:16:20.112Z,5.30
2022-08-26T10:18:59.465Z,4.88
2022-08-26T10:21:34.137Z,5.88
2022-08-26T10:24:05.539Z,5.60
2022-08-26T10:26:44.620Z,5.03
2022-08-26T10:29:22.389Z,4.82
2022-08-26T10:31:56.279Z,4.38
2022-08-26T10:34:31.099Z,3.97
2022-08-26T10:37:16.285Z,5.35
2022-08-26T10:39:57.090Z,4.60
2022-08-26T10:42:33.554Z,4.47
2022-08-26T10:45:11.984Z,3.97
2022-08-26T10:47:51.417Z,3.88
2022-08-26T10:50:21.629Z,4.45
2022-08-26T10:53:00.872Z,4.38
2022-08-26T10:55:38.628Z,5.00
2022-08-26T10:58:31.109Z,4.85
2022-08-26T11:01:32.449Z,4.40
2022-08-26T11:04:11.668Z,5.18
2022-08-26T11:06:40.346Z,5.00
2022-08-26T11:09:10.950Z,5.15
2022-08-26T11:11:51.296Z,4.72
2022-08-26T11:14:40.706Z,5.13
2022-08-26T11:17:58.243Z,5.25
2022-08-26T11:20:39.100Z,5.53
2022-08-26T11:23:50.405Z,6.22
2022-08-26T11:26:37.882Z,6.05
2022-08-26T11:30:02.685Z,6.03
2022-08-26T11:32:51.024Z,6.15
2022-08-26T11:35:52.288Z,6.63
2022-08-26T11:38:29.633Z,6.90
2022-08-26T11:41:11.289Z,6.07
2022-08-26T11:43:42.657Z,6.47
2022-08-26T11:46:24.053Z,6.20
2022-08-26T11:49:02.186Z,5.97
2022-08-26T11:51:31.946Z,5.35
2022-08-26T11:54:13.405Z,5.53
2022-08-26T11:56:44.179Z,5.63
2022-08-26T11:59:19.015Z,5.35
2022-08-26T12:01:54.831Z,6.30
2022-08-26T12:04:31.919Z,5.45
2022-08-26T12:07:03.109Z,4.55
2022-08-26T12:09:35.488Z,5.32
2022-08-26T12:12:18.599Z,5.45
2022-08-26T12:14:47.659Z,4.60
2022-08-26T12:17:22.511Z,4.60
2022-08-26T12:19:51.466Z,4.72
2022-08-26T12:22:23.937Z,5.65
2022-08-26T12:24:55.932Z,5.75
2022-08-26T12:27:28.347Z,5.35
2022-08-26T12:30:12.349Z,4.78
2022-08-26T12:32:57.311Z,4.45
2022-08-26T12:35:30.095Z,5.15
2022-08-26T12:38:01.576Z,5.20
2022-08-26T12:40:39.417Z,4.90
2022-08-26T12:43:10.337Z,4.78
2022-08-26T12:45:41.621Z,4.55
2022-08-26T12:48:24.579Z,5.68
2022-08-26T12:50:54.133Z,5.35
2022-08-26T12:53:25.353Z,4.88
2022-08-26T12:55:56.643Z,4.93
2022-08-26T12:58:30.356Z,4.60
2022-08-26T13:01:20.335Z,4.72
2022-08-26T13:03:50.395Z,4.40
2022-08-26T13:06:30.077Z,4.50
2022-08-26T13:09:01.280Z,4.13
2022-08-26T13:11:33.052Z,4.72
2022-08-26T13:14:07.071Z,4.15
2022-08-26T13:16:36.899Z,5.68
2022-08-26T13:19:10.752Z,3.88
2022-08-26T13:21:47.828Z,4.07
2022-08-26T13:24:21.417Z,5.07
2022-08-26T13:26:51.076Z,3.70
2022-08-26T13:29:20.622Z,3.72
2022-08-26T13:31:49.588Z,4.57
2022-08-26T13:34:22.258Z,4.03
2022-08-26T13:36:53.320Z,3.60
2022-08-26T13:39:22.865Z,4.05
2022-08-26T13:41:51.675Z,3.85
2022-08-26T13:44:21.647Z,3.28
2022-08-26T13:46:50.198Z,3.53
2022-08-26T13:49:20.007Z,3.92
2022-08-26T13:51:48.439Z,3.30
2022-08-26T13:54:16.927Z,3.38
2022-08-26T13:56:45.421Z,3.47
2022-08-26T13:59:14.002Z,4.55
2022-08-26T14:01:42.508Z,4.22
2022-08-26T14:04:10.976Z,3.35
2022-08-26T14:06:40.869Z,4.00
2022-08-26T14:09:11.452Z,4.07
2022-08-26T14:11:54.025Z,3.20
2022-08-26T14:14:22.743Z,4.22
2022-08-26T14:16:59.817Z,3.88
2022-08-26T14:19:30.779Z,3.90
2022-08-26T14:22:01.863Z,4.53
2022-08-26T14:24:30.877Z,4.20
2022-08-26T14:26:59.573Z,3.65
2022-08-26T14:29:28.374Z,3.95
2022-08-26T14:31:58.782Z,4.40
2022-08-26T14:34:27.345Z,3.13
2022-08-26T14:36:55.845Z,3.92
2022-08-26T14:39:25.739Z,3.30
2022-08-26T14:41:57.759Z,4.30
2022-08-26T14:44:31.273Z,3.80
2022-08-26T14:47:02.889Z,4.95
2022-08-26T14:49:32.361Z,4.20
2022-08-26T14:52:00.948Z,4.40
2022-08-26T14:54:30.733Z,3.90
2022-08-26T14:57:03.720Z,4.07
2022-08-26T14:59:34.924Z,4.60
2022-08-26T15:02:04.263Z,3.83
2022-08-26T15:04:32.913Z,3.85
2022-08-26T15:07:02.416Z,3.90
2022-08-26T15:09:36.453Z,3.90
2022-08-26T15:12:05.868Z,4.50
2022-08-26T15:14:34.568Z,3.63
2022-08-26T15:17:03.444Z,3.78
2022-08-26T15:19:31.898Z,3.10
2022-08-26T15:22:00.372Z,3.38
2022-08-26T15:24:30.070Z,3.88
2022-08-26T15:26:59.895Z,6.07
2022-08-26T15:29:28.392Z,4.60
2022-08-26T15:31:57.449Z,3.65
2022-08-26T15:34:26.999Z,4.18
2022-08-26T15:36:55.898Z,2.92
2022-08-26T15:39:24.855Z,3.05
2022-08-26T15:41:53.341Z,3.75
2022-08-26T15:44:23.902Z,3.50
2022-08-26T15:46:58.270Z,3.65
2022-08-26T15:49:27.746Z,3.75
2022-08-26T15:51:56.238Z,2.88
2022-08-26T15:54:25.852Z,3.58
2022-08-26T15:56:54.440Z,3.33
2022-08-26T15:59:24.438Z,4.22
2022-08-26T16:01:53.243Z,3.63
2022-08-26T16:04:22.157Z,4.20
2022-08-26T16:06:52.303Z,3.50
2022-08-26T16:09:24.213Z,4.70
2022-08-26T16:11:53.206Z,5.35
2022-08-26T16:14:23.778Z,3.92
2022-08-26T16:16:52.732Z,5.65
2022-08-26T16:19:22.205Z,4.43
2022-08-26T16:21:52.016Z,4.15
2022-08-26T16:24:25.967Z,3.92
2022-08-26T16:26:57.046Z,3.45
2022-08-26T16:29:27.211Z,4.20
2022-08-26T16:31:56.232Z,3.75
2022-08-26T16:34:24.928Z,3.78
2022-08-26T16:36:53.974Z,3.95
2022-08-26T16:39:22.450Z,3.63
2022-08-26T16:41:50.972Z,4.15
2022-08-26T16:44:19.400Z,3.00
2022-08-26T16:46:49.682Z,3.50
2022-08-26T16:49:18.216Z,3.92
2022-08-26T16:51:46.960Z,2.92
2022-08-26T16:54:15.434Z,3.83
2022-08-26T16:56:43.834Z,3.75
2022-08-26T16:59:12.585Z,3.90
2022-08-26T17:01:41.035Z,4.20
2022-08-26T17:04:10.919Z,3.55
2022-08-26T17:06:39.465Z,4.38
2022-08-26T17:09:08.132Z,4.65
2022-08-26T17:11:36.956Z,4.95
2022-08-26T17:14:06.175Z,3.85
2022-08-26T17:16:34.729Z,3.35
2022-08-26T17:19:04.538Z,5.00
2022-08-26T17:21:36.260Z,4.82
2022-08-26T17:24:05.688Z,4.82
2022-08-26T17:26:34.462Z,4.45
2022-08-26T17:29:02.858Z,4.70
2022-08-26T17:31:32.066Z,5.35
2022-08-26T17:34:00.926Z,4.18
2022-08-26T17:36:29.467Z,4.50
2022-08-26T17:39:00.259Z,4.63
2022-08-26T17:41:29.740Z,4.43
2022-08-26T17:43:58.434Z,4.22
2022-08-26T17:46:27.468Z,4.30
2022-08-26T17:48:56.528Z,3.67
2022-08-26T17:51:25.489Z,3.75
2022-08-26T17:53:54.376Z,4.68
2022-08-26T17:56:27.917Z,4.45
2022-08-26T17:59:03.517Z,4.78
2022-08-26T18:01:32.953Z,4.30
2022-08-26T18:04:01.634Z,4.47
2022-08-26T18:06:30.834Z,4.82
2022-08-26T18:09:00.090Z,5.75
2022-08-26T18:11:31.239Z,4.35
2022-08-26T18:13:59.942Z,4.93
2022-08-26T18:16:31.934Z,4.35
2022-08-26T18:19:00.804Z,4.65
2022-08-26T18:21:29.679Z,5.38
2022-08-26T18:23:58.357Z,5.22
2022-08-26T18:26:31.558Z,5.55
2022-08-26T18:29:00.812Z,6.53
2022-08-26T18:31:30.218Z,4.82
2022-08-26T18:34:00.317Z,5.72
2022-08-26T18:36:32.232Z,5.78
2022-08-26T18:39:00.986Z,5.43
2022-08-26T18:41:33.203Z,6.82
2022-08-26T18:44:01.801Z,5.72
2022-08-26T18:46:30.333Z,5.90
2022-08-26T18:48:59.097Z,5.47
2022-08-26T18:51:31.972Z,7.72
2022-08-26T18:54:02.633Z,6.63
2022-08-26T18:56:33.626Z,6.38
2022-08-26T18:59:03.128Z,6.22
2022-08-26T19:01:33.790Z,7.20
2022-08-26T19:04:05.930Z,6.72
2022-08-26T19:06:38.456Z,6.28
2022-08-26T19:09:10.671Z,6.38
2022-08-26T19:11:42.968Z,8.50
2022-08-26T19:14:15.324Z,7.05
2022-08-26T19:16:47.293Z,7.35
2022-08-26T19:19:16.556Z,6.72
2022-08-26T19:21:45.343Z,8.48
2022-08-26T19:24:17.657Z,6.28
2022-08-26T19:26:55.206Z,5.85
2022-08-26T19:29:30.364Z,4.85
2022-08-26T19:31:59.001Z,4.60
2022-08-26T19:34:28.110Z,5.15
2022-08-26T19:36:58.410Z,5.13
2022-08-26T19:39:28.193Z,4.28
2022-08-26T19:41:59.124Z,4.95
2022-08-26T19:44:45.347Z,5.28
2022-08-26T19:47:15.921Z,4.88
2022-08-26T19:49:45.185Z,5.95
2022-08-26T19:52:14.583Z,5.28
2022-08-26T19:54:44.846Z,5.45
2022-08-26T19:57:14.649Z,4.88
2022-08-26T19:59:43.893Z,5.78
2022-08-26T20:02:13.264Z,5.40
2022-08-26T20:04:42.252Z,5.25
2022-08-26T20:07:13.042Z,5.57
2022-08-26T20:09:45.408Z,5.07
2022-08-26T20:12:16.282Z,4.75
2022-08-26T20:14:45.538Z,5.10
2022-08-26T20:17:14.836Z,4.80
2022-08-26T20:20:00.990Z,7.07
2022-08-26T20:22:29.960Z,6.63
2022-08-26T20:24:58.655Z,6.40
2022-08-26T20:27:37.953Z,6.35
2022-08-26T20:30:10.074Z,5.32
2022-08-26T20:32:39.692Z,5.40
2022-08-26T20:35:11.141Z,6.05
2022-08-26T20:37:40.493Z,6.63
2022-08-26T20:40:12.174Z,4.97
2022-08-26T20:42:42.784Z,5.55
2022-08-26T20:45:12.372Z,4.65
2022-08-26T20:47:40.996Z,4.70
2022-08-26T20:50:10.524Z,4.53
2022-08-26T20:52:38.966Z,5.65
2022-08-26T20:55:08.639Z,4.57
2022-08-26T20:57:37.408Z,4.28
2022-08-26T21:00:09.192Z,4.15
2022-08-26T21:02:37.593Z,4.47
2022-08-26T21:05:07.501Z,4.03
2022-08-26T21:07:36.119Z,5.03
2022-08-26T21:10:05.201Z,3.72
2022-08-26T21:12:33.642Z,5.03
2022-08-26T21:15:02.177Z,4.38
2022-08-26T21:17:32.430Z,4.18
2022-08-26T21:20:01.019Z,4.07
2022-08-26T21:22:30.783Z,5.00
2022-08-26T21:24:59.233Z,4.88
2022-08-26T21:27:27.891Z,4.07
2022-08-26T21:29:56.690Z,4.05
2022-08-26T21:32:25.159Z,4.97
2022-08-26T21:34:57.261Z,3.92
2022-08-26T21:37:27.258Z,3.88
2022-08-26T21:39:57.172Z,4.43
2022-08-26T21:42:27.428Z,4.05
2022-08-26T21:44:55.982Z,4.05
2022-08-26T21:47:25.555Z,4.05
2022-08-26T21:49:54.467Z,3.13
2022-08-26T21:52:24.293Z,3.42
2022-08-26T21:54:56.993Z,4.18
2022-08-26T21:57:25.504Z,4.13
2022-08-26T21:59:54.062Z,4.30
2022-08-26T22:02:24.201Z,4.15
2022-08-26T22:04:52.807Z,6.20
2022-08-26T22:07:21.486Z,4.07
2022-08-26T22:09:51.295Z,3.47
2022-08-26T22:12:19.678Z,3.20
2022-08-26T22:14:48.572Z,3.78
2022-08-26T22:17:17.081Z,4.50
2022-08-26T22:19:46.738Z,3.63
2022-08-26T22:22:16.364Z,4.60
2022-08-26T22:24:44.798Z,4.82
2022-08-26T22:27:15.426Z,3.42
2022-08-26T22:29:43.914Z,4.60
2022-08-26T22:32:12.389Z,3.90
2022-08-26T22:34:41.988Z,3.53
2022-08-26T22:37:10.495Z,2.72
2022-08-26T22:39:39.757Z,3.58
2022-08-26T22:42:08.338Z,3.80
2022-08-26T22:44:38.167Z,3.60
2022-08-26T22:47:07.412Z,3.17
2022-08-26T22:49:35.847Z,2.80
2022-08-26T22:52:04.891Z,3.42
2022-08-26T22:54:33.317Z,3.35
2022-08-26T22:57:01.811Z,3.78
2022-08-26T22:59:30.281Z,3.58
2022-08-26T23:02:00.638Z,3.60
2022-08-26T23:04:29.045Z,3.55
2022-08-26T23:06:57.476Z,3.58
2022-08-26T23:09:25.897Z,3.60
2022-08-26T23:11:56.036Z,3.60
2022-08-26T23:14:25.815Z,3.28
2022-08-26T23:16:54.749Z,2.72
2022-08-26T23:19:24.954Z,2.70
2022-08-26T23:21:53.670Z,4.30
2022-08-26T23:24:22.142Z,3.42
2022-08-26T23:26:50.656Z,3.53
2022-08-26T23:29:19.282Z,3.20
2022-08-26T23:31:48.014Z,4.07
2022-08-26T23:34:34.381Z,4.07
2022-08-26T23:37:06.746Z,4.18
2022-08-26T23:39:36.500Z,3.78
2022-08-26T23:42:06.598Z,3.45
2022-08-26T23:44:35.539Z,2.90
2022-08-26T23:47:04.966Z,3.25
2022-08-26T23:49:34.385Z,2.72
2022-08-26T23:52:28.196Z,2.80
2022-08-26T23:54:57.000Z,3.10
2022-08-26T23:57:27.815Z,3.60
2022-08-26T23:59:56.946Z,4.38
